createdAt,value
2017-10-12T00:01:46.106Z,12.03
2017-10-12T00:04:13.622Z,11.95
2017-10-12T00:06:41.141Z,12.04
2017-10-12T00:09:08.746Z,12.08
2017-10-12T00:11:36.262Z,12.03
2017-10-12T00:14:03.796Z,12.00
2017-10-12T00:16:31.344Z,12.07
2017-10-12T00:18:58.890Z,12.18
2017-10-12T00:21:26.398Z,12.22
2017-10-12T00:23:54.119Z,12.20
2017-10-12T00:26:21.694Z,12.22
2017-10-12T00:28:49.247Z,12.06
2017-10-12T00:31:16.864Z,12.01
2017-10-12T00:33:44.413Z,12.05
2017-10-12T00:44:08.463Z,11.51
2017-10-12T00:46:36.043Z,11.63
2017-10-12T00:49:03.657Z,11.72
2017-10-12T00:51:31.258Z,11.73
2017-10-12T00:53:58.782Z,11.63
2017-10-12T00:56:26.360Z,11.57
2017-10-12T00:58:54.209Z,11.56
2017-10-12T01:01:21.740Z,11.55
2017-10-12T01:03:49.299Z,11.58
2017-10-12T01:06:16.898Z,11.69
2017-10-12T01:08:44.438Z,11.56
2017-10-12T01:11:11.980Z,11.50
2017-10-12T01:13:39.636Z,11.48
2017-10-12T01:16:07.158Z,11.45
2017-10-12T01:18:34.694Z,11.50
2017-10-12T01:21:02.324Z,11.27
2017-10-12T01:23:29.859Z,11.36
2017-10-12T01:25:57.420Z,11.43
2017-10-12T01:28:25.022Z,11.38
2017-10-12T01:30:52.547Z,11.54
2017-10-12T01:33:20.076Z,11.27
2017-10-12T01:35:47.669Z,11.20
2017-10-12T01:38:15.214Z,11.27
2017-10-12T01:40:42.757Z,11.26
2017-10-12T01:43:10.361Z,11.25
2017-10-12T01:45:37.914Z,11.34
2017-10-12T01:48:05.523Z,11.29
2017-10-12T01:50:33.112Z,11.08
2017-10-12T01:53:00.667Z,11.11
2017-10-12T01:55:28.341Z,11.09
2017-10-12T01:57:55.931Z,11.08
2017-10-12T02:00:23.478Z,11.04
2017-10-12T02:02:51.039Z,11.11
2017-10-12T02:05:18.659Z,11.15
2017-10-12T02:07:46.182Z,11.13
2017-10-12T02:10:13.771Z,10.95
2017-10-12T02:12:41.410Z,10.89
2017-10-12T02:15:08.993Z,10.96
2017-10-12T02:17:36.562Z,11.05
2017-10-12T02:20:04.173Z,11.04
2017-10-12T02:22:31.699Z,11.02
2017-10-12T02:24:59.241Z,10.91
2017-10-12T02:27:26.902Z,10.86
2017-10-12T02:29:54.436Z,10.80
2017-10-12T02:32:21.960Z,10.74
2017-10-12T02:34:49.530Z,10.64
2017-10-12T02:37:17.064Z,10.65
2017-10-12T02:39:44.604Z,10.64
2017-10-12T02:42:12.209Z,10.63
2017-10-12T02:44:39.730Z,10.62
2017-10-12T02:47:07.284Z,10.56
2017-10-12T02:49:34.850Z,10.51
2017-10-12T02:52:02.441Z,10.54
2017-10-12T02:54:29.983Z,10.57
2017-10-12T02:56:57.612Z,10.57
2017-10-12T02:59:25.164Z,10.70
2017-10-12T03:01:52.898Z,10.64
2017-10-12T03:04:20.500Z,10.59
2017-10-12T03:06:48.029Z,10.47
2017-10-12T03:09:15.616Z,10.39
2017-10-12T03:11:43.206Z,10.37
2017-10-12T03:14:10.865Z,10.51
2017-10-12T03:16:38.419Z,10.47
2017-10-12T03:19:06.014Z,10.39
2017-10-12T03:21:33.556Z,10.36
2017-10-12T03:24:01.087Z,10.33
2017-10-12T03:26:28.668Z,10.22
2017-10-12T03:28:56.196Z,10.14
2017-10-12T03:31:23.765Z,10.30
2017-10-12T03:33:51.365Z,10.30
2017-10-12T03:36:19.149Z,10.27
2017-10-12T03:38:46.761Z,10.39
2017-10-12T03:41:14.367Z,10.59
2017-10-12T03:44:30.015Z,10.67
2017-10-12T03:46:57.594Z,10.58
2017-10-12T03:49:25.427Z,10.55
2017-10-12T03:51:52.982Z,11.05
2017-10-12T03:54:20.669Z,10.97
2017-10-12T03:57:13.791Z,10.92
2017-10-12T03:59:42.291Z,10.86
2017-10-12T04:02:09.863Z,10.55
2017-10-12T04:04:37.394Z,10.46
2017-10-12T04:07:06.656Z,10.52
2017-10-12T04:09:34.259Z,10.41
2017-10-12T04:12:02.903Z,10.35
2017-10-12T04:14:30.449Z,10.24
2017-10-12T04:16:58.026Z,10.20
2017-10-12T04:19:25.629Z,10.05
2017-10-12T04:21:53.516Z,10.18
2017-10-12T04:24:21.110Z,10.14
2017-10-12T04:26:48.673Z,10.12
2017-10-12T04:29:16.212Z,10.16
2017-10-12T04:31:43.813Z,10.17
2017-10-12T04:34:11.413Z,10.13
2017-10-12T04:36:38.938Z,10.08
2017-10-12T04:39:06.527Z,10.07
2017-10-12T04:41:34.302Z,10.08
2017-10-12T04:44:01.814Z,10.15
2017-10-12T04:46:29.413Z,10.29
2017-10-12T04:48:56.963Z,10.51
2017-10-12T04:51:24.824Z,10.77
2017-10-12T04:53:52.410Z,10.87
2017-10-12T04:56:19.926Z,11.28
2017-10-12T04:58:47.471Z,11.61
2017-10-12T05:01:15.039Z,11.88
2017-10-12T05:03:42.563Z,12.33
2017-10-12T05:06:10.131Z,12.59
2017-10-12T05:08:37.753Z,12.83
2017-10-12T05:11:05.290Z,13.04
2017-10-12T05:13:32.875Z,13.46
2017-10-12T05:16:00.447Z,13.67
2017-10-12T05:18:27.976Z,14.27
2017-10-12T05:20:55.510Z,14.38
2017-10-12T05:23:23.078Z,14.54
2017-10-12T05:25:50.639Z,14.52
2017-10-12T05:28:18.173Z,15.22
2017-10-12T05:30:45.778Z,15.33
2017-10-12T05:33:13.341Z,15.56
2017-10-12T05:35:40.876Z,15.67
2017-10-12T05:38:08.501Z,15.81
2017-10-12T05:40:36.045Z,16.35
2017-10-12T05:43:03.603Z,15.97
2017-10-12T05:45:31.182Z,16.58
2017-10-12T05:47:58.696Z,16.91
2017-10-12T05:50:26.235Z,17.09
2017-10-12T05:52:53.798Z,17.57
2017-10-12T05:55:21.317Z,17.77
2017-10-12T05:57:48.847Z,17.83
2017-10-12T06:00:16.423Z,18.01
2017-10-12T06:02:43.971Z,18.25
2017-10-12T06:05:11.533Z,18.52
2017-10-12T06:07:39.102Z,18.81
2017-10-12T06:10:06.647Z,18.88
2017-10-12T06:12:34.185Z,19.21
2017-10-12T06:15:01.759Z,19.45
2017-10-12T06:17:29.316Z,19.57
2017-10-12T06:19:56.878Z,19.92
2017-10-12T06:22:24.443Z,20.01
2017-10-12T06:24:51.974Z,20.49
2017-10-12T06:27:19.496Z,20.52
2017-10-12T06:29:47.171Z,20.42
2017-10-12T06:32:14.764Z,20.18
2017-10-12T06:34:42.301Z,20.09
2017-10-12T06:37:09.827Z,19.75
2017-10-12T06:39:37.409Z,19.78
2017-10-12T06:42:05.007Z,20.07
2017-10-12T06:44:32.539Z,20.27
2017-10-12T06:47:00.104Z,21.11
2017-10-12T06:49:27.652Z,21.56
2017-10-12T06:51:55.166Z,21.56
2017-10-12T06:54:22.783Z,21.75
2017-10-12T06:56:50.327Z,21.37
2017-10-12T06:59:17.844Z,21.38
2017-10-12T07:01:45.474Z,21.90
2017-10-12T07:04:12.990Z,23.06
2017-10-12T07:06:40.510Z,22.30
2017-10-12T07:09:08.086Z,21.68
2017-10-12T07:11:39.841Z,20.91
2017-10-12T07:14:07.363Z,21.14
2017-10-12T07:16:34.936Z,20.92
2017-10-12T07:19:02.557Z,21.76
2017-10-12T07:21:30.094Z,22.07
2017-10-12T07:23:57.692Z,22.89
2017-10-12T07:26:25.247Z,21.76
2017-10-12T07:28:52.821Z,22.22
2017-10-12T07:31:20.414Z,22.56
2017-10-12T07:33:47.968Z,22.94
2017-10-12T07:36:15.508Z,22.99
2017-10-12T07:38:43.101Z,23.08
2017-10-12T07:41:10.632Z,23.71
2017-10-12T07:43:38.195Z,23.01
2017-10-12T07:46:05.788Z,23.61
2017-10-12T07:48:33.332Z,24.09
2017-10-12T07:51:00.856Z,23.81
2017-10-12T07:53:28.516Z,25.00
2017-10-12T07:55:56.058Z,24.53
2017-10-12T07:58:23.608Z,24.57
2017-10-12T08:00:51.194Z,24.53
2017-10-12T08:03:18.721Z,25.08
2017-10-12T08:05:46.249Z,25.16
2017-10-12T08:08:13.825Z,25.00
2017-10-12T08:10:41.365Z,25.17
2017-10-12T08:13:09.122Z,25.27
2017-10-12T08:15:36.686Z,25.06
2017-10-12T08:18:04.462Z,24.95
2017-10-12T08:20:31.984Z,24.58
2017-10-12T08:22:59.558Z,23.19
2017-10-12T08:25:27.102Z,24.22
2017-10-12T08:27:54.674Z,25.20
2017-10-12T08:30:22.373Z,24.95
2017-10-12T08:32:49.882Z,25.48
2017-10-12T08:35:17.405Z,25.30
2017-10-12T08:37:44.994Z,25.87
2017-10-12T08:40:12.513Z,25.69
2017-10-12T08:42:40.044Z,25.94
2017-10-12T08:45:07.649Z,26.34
2017-10-12T08:47:35.200Z,26.52
2017-10-12T08:50:02.740Z,27.47
2017-10-12T08:52:30.335Z,26.51
2017-10-12T08:54:57.889Z,26.19
2017-10-12T08:57:25.423Z,26.27
2017-10-12T08:59:53.072Z,26.14
2017-10-12T09:02:20.660Z,24.42
2017-10-12T09:04:48.184Z,25.15
2017-10-12T09:07:15.707Z,24.99
2017-10-12T09:09:43.287Z,25.29
2017-10-12T09:12:10.853Z,24.62
2017-10-12T09:14:38.374Z,24.20
2017-10-12T09:17:05.932Z,23.99
2017-10-12T09:19:33.456Z,24.32
2017-10-12T09:22:01.000Z,23.56
2017-10-12T09:24:28.622Z,24.45
2017-10-12T09:26:56.388Z,24.72
2017-10-12T09:29:23.928Z,24.99
2017-10-12T09:31:51.524Z,25.44
2017-10-12T09:34:19.067Z,24.62
2017-10-12T09:36:46.634Z,24.96
2017-10-12T09:39:14.246Z,25.05
2017-10-12T09:41:41.862Z,25.27
2017-10-12T09:44:09.447Z,25.67
2017-10-12T09:46:37.134Z,25.74
2017-10-12T09:49:04.692Z,25.96
2017-10-12T09:51:32.357Z,26.40
2017-10-12T09:53:59.942Z,26.37
2017-10-12T09:56:27.539Z,26.76
2017-10-12T09:58:55.097Z,27.04
2017-10-12T10:01:22.711Z,26.49
2017-10-12T10:03:50.287Z,26.91
2017-10-12T10:06:17.840Z,26.43
2017-10-12T10:08:45.419Z,26.83
2017-10-12T10:11:13.356Z,26.87
2017-10-12T10:13:40.875Z,26.94
2017-10-12T10:16:08.457Z,26.64
2017-10-12T10:18:35.994Z,26.40
2017-10-12T10:21:03.614Z,26.17
2017-10-12T10:23:31.195Z,26.25
2017-10-12T10:25:58.730Z,26.16
2017-10-12T10:28:26.552Z,26.07
2017-10-12T10:30:54.181Z,26.43
2017-10-12T10:33:21.751Z,26.68
2017-10-12T10:35:49.366Z,26.73
2017-10-12T10:38:16.934Z,26.46
2017-10-12T10:40:44.455Z,25.48
2017-10-12T10:43:11.977Z,26.19
2017-10-12T10:45:39.531Z,26.56
2017-10-12T10:48:07.054Z,26.96
2017-10-12T10:50:34.583Z,27.21
2017-10-12T10:53:02.193Z,27.20
2017-10-12T10:55:29.743Z,26.97
2017-10-12T10:57:57.269Z,27.09
2017-10-12T11:00:24.910Z,27.29
2017-10-12T11:02:52.588Z,27.53
2017-10-12T11:05:20.110Z,27.43
2017-10-12T11:07:47.687Z,27.50
2017-10-12T11:10:15.199Z,27.59
2017-10-12T11:12:42.732Z,27.64
2017-10-12T11:15:10.455Z,27.58
2017-10-12T11:17:38.048Z,27.18
2017-10-12T11:20:05.568Z,27.38
2017-10-12T11:22:33.132Z,27.31
2017-10-12T11:25:00.645Z,27.34
2017-10-12T11:27:28.445Z,27.50
2017-10-12T11:29:56.762Z,27.14
2017-10-12T11:32:24.336Z,27.02
2017-10-12T11:34:51.955Z,26.88
2017-10-12T11:37:19.514Z,27.07
2017-10-12T11:39:47.159Z,26.93
2017-10-12T11:42:14.743Z,26.93
2017-10-12T11:44:42.262Z,26.97
2017-10-12T11:47:10.352Z,26.80
2017-10-12T11:49:37.919Z,26.91
2017-10-12T11:52:05.933Z,26.71
2017-10-12T11:54:33.690Z,26.79
2017-10-12T11:57:02.141Z,26.95
2017-10-12T11:59:29.915Z,27.08
2017-10-12T12:01:57.521Z,27.16
2017-10-12T12:04:25.059Z,27.30
2017-10-12T12:06:52.596Z,27.33
2017-10-12T12:09:21.109Z,27.11
2017-10-12T12:11:48.668Z,26.79
2017-10-12T12:14:16.525Z,26.82
2017-10-12T12:16:44.103Z,26.77
2017-10-12T12:19:11.656Z,26.91
2017-10-12T12:21:39.216Z,26.83
2017-10-12T12:24:06.850Z,26.87
2017-10-12T12:26:34.373Z,26.59
2017-10-12T12:29:02.136Z,26.56
2017-10-12T12:31:29.714Z,26.49
2017-10-12T12:33:57.274Z,26.13
2017-10-12T12:36:25.067Z,26.03
2017-10-12T12:38:53.371Z,25.98
2017-10-12T12:41:20.963Z,25.90
2017-10-12T12:43:48.768Z,25.87
2017-10-12T12:46:16.358Z,25.79
2017-10-12T12:48:43.957Z,25.86
2017-10-12T12:51:11.466Z,25.79
2017-10-12T12:53:39.026Z,25.46
2017-10-12T12:56:07.070Z,25.38
2017-10-12T12:58:34.838Z,25.05
2017-10-12T13:01:02.473Z,24.92
2017-10-12T13:03:30.062Z,24.97
2017-10-12T13:05:58.134Z,25.10
2017-10-12T13:08:25.719Z,24.92
2017-10-12T13:10:53.329Z,24.71
2017-10-12T13:13:20.894Z,24.73
2017-10-12T13:15:48.466Z,24.81
2017-10-12T13:18:16.022Z,24.67
2017-10-12T13:20:43.616Z,24.55
2017-10-12T13:23:11.254Z,24.03
2017-10-12T13:25:38.777Z,24.00
2017-10-12T13:28:06.514Z,23.95
2017-10-12T13:30:35.045Z,24.11
2017-10-12T13:33:02.561Z,24.19
2017-10-12T13:35:30.161Z,23.96
2017-10-12T13:37:57.744Z,23.72
2017-10-12T13:40:25.296Z,23.46
2017-10-12T13:42:53.796Z,23.35
2017-10-12T13:45:21.369Z,23.58
2017-10-12T13:47:48.929Z,23.49
2017-10-12T13:50:16.453Z,23.29
2017-10-12T13:52:44.103Z,23.18
2017-10-12T13:55:11.929Z,23.32
2017-10-12T13:57:39.534Z,23.38
2017-10-12T14:00:08.267Z,23.27
2017-10-12T14:02:36.099Z,23.33
2017-10-12T14:05:03.693Z,23.44
2017-10-12T14:07:31.356Z,23.37
2017-10-12T14:09:58.952Z,23.28
2017-10-12T14:12:26.567Z,23.19
2017-10-12T14:14:54.258Z,22.99
2017-10-12T14:17:21.949Z,23.00
2017-10-12T14:19:49.502Z,23.01
2017-10-12T14:22:17.119Z,23.11
2017-10-12T14:24:44.965Z,22.86
2017-10-12T14:27:12.511Z,22.87
2017-10-12T14:29:40.071Z,22.73
2017-10-12T14:32:07.643Z,22.72
2017-10-12T14:34:35.200Z,22.63
2017-10-12T14:37:02.947Z,22.55
2017-10-12T14:39:30.555Z,22.57
2017-10-12T14:41:58.187Z,22.43
2017-10-12T14:44:27.045Z,22.28
2017-10-12T14:46:54.635Z,22.23
2017-10-12T14:49:22.173Z,22.17
2017-10-12T14:51:50.037Z,22.03
2017-10-12T14:54:17.603Z,22.04
2017-10-12T14:56:45.144Z,22.05
2017-10-12T14:59:12.893Z,21.92
2017-10-12T15:01:40.609Z,21.85
2017-10-12T15:04:08.154Z,21.85
2017-10-12T15:06:36.003Z,21.84
2017-10-12T15:09:03.686Z,21.82
2017-10-12T15:11:31.207Z,21.74
2017-10-12T15:13:58.722Z,21.72
2017-10-12T15:16:26.336Z,21.64
2017-10-12T15:18:54.138Z,21.62
2017-10-12T15:21:22.069Z,21.53
2017-10-12T15:23:49.703Z,21.43
2017-10-12T15:26:17.335Z,21.38
2017-10-12T15:28:45.105Z,21.36
2017-10-12T15:31:12.737Z,21.29
2017-10-12T15:33:40.250Z,21.13
2017-10-12T15:36:07.961Z,21.13
2017-10-12T15:38:35.522Z,21.09
2017-10-12T15:41:03.069Z,20.92
2017-10-12T15:43:31.391Z,20.82
2017-10-12T15:45:59.016Z,20.84
2017-10-12T15:48:26.598Z,20.81
2017-10-12T15:50:54.549Z,20.75
2017-10-12T15:53:22.208Z,20.65
2017-10-12T15:55:49.788Z,20.67
2017-10-12T15:58:17.327Z,20.53
2017-10-12T16:00:44.968Z,20.46
2017-10-12T16:03:12.527Z,20.42
2017-10-12T16:05:40.502Z,20.36
2017-10-12T16:08:08.146Z,20.30
2017-10-12T16:10:35.714Z,20.20
2017-10-12T16:13:03.315Z,20.18
2017-10-12T16:15:31.086Z,20.06
2017-10-12T16:17:58.975Z,20.02
2017-10-12T16:20:26.951Z,20.05
2017-10-12T16:22:57.559Z,20.00
2017-10-12T16:25:22.438Z,19.81
2017-10-12T16:27:50.706Z,19.83
2017-10-12T16:30:19.363Z,19.82
2017-10-12T16:35:15.543Z,19.68
2017-10-12T16:37:43.184Z,19.65
2017-10-12T16:42:38.467Z,19.46
2017-10-12T16:45:06.063Z,19.29
2017-10-12T16:47:33.635Z,19.32
2017-10-12T16:50:01.264Z,19.26
2017-10-12T16:52:30.291Z,19.13
2017-10-12T16:54:57.842Z,19.09
2017-10-12T16:57:25.467Z,18.98
2017-10-12T16:59:53.374Z,18.87
2017-10-12T17:02:21.408Z,18.89
2017-10-12T17:04:49.002Z,18.90
2017-10-12T17:07:17.713Z,18.82
2017-10-12T17:09:45.325Z,18.81
2017-10-12T17:12:12.908Z,18.81
2017-10-12T17:14:40.499Z,18.86
2017-10-12T17:17:08.169Z,18.93
2017-10-12T17:19:35.740Z,18.97
2017-10-12T17:22:03.384Z,19.02
2017-10-12T17:24:30.967Z,18.96
2017-10-12T17:26:58.563Z,18.97
2017-10-12T17:29:26.118Z,18.98
2017-10-12T17:31:53.813Z,19.07
2017-10-12T17:34:21.395Z,19.07
2017-10-12T17:36:48.936Z,18.92
2017-10-12T17:39:16.535Z,18.81
2017-10-12T17:41:44.093Z,18.78
2017-10-12T17:44:12.015Z,18.61
2017-10-12T17:46:39.681Z,18.52
2017-10-12T17:49:07.242Z,18.54
2017-10-12T17:51:34.761Z,18.59
2017-10-12T17:56:30.028Z,18.04
2017-10-12T17:58:57.589Z,17.76
2017-10-12T18:01:25.246Z,17.77
2017-10-12T18:03:52.839Z,17.87
2017-10-12T18:06:20.452Z,18.01
2017-10-12T18:08:48.034Z,18.04
2017-10-12T18:11:15.584Z,18.12
2017-10-12T18:13:43.101Z,18.09
2017-10-12T18:16:10.812Z,18.11
2017-10-12T18:18:38.685Z,18.19
2017-10-12T18:21:06.621Z,18.07
2017-10-12T18:23:34.782Z,18.13
2017-10-12T18:26:02.724Z,18.02
2017-10-12T18:28:30.934Z,17.95
2017-10-12T18:30:59.050Z,18.06
2017-10-12T18:33:27.077Z,18.11
2017-10-12T18:35:55.305Z,17.94
2017-10-12T18:38:23.485Z,17.98
2017-10-12T18:40:51.746Z,17.88
2017-10-12T18:43:19.679Z,17.93
2017-10-12T18:45:47.694Z,17.61
2017-10-12T18:48:15.715Z,17.65
2017-10-12T18:50:44.322Z,17.65
2017-10-12T18:53:12.528Z,17.62
2017-10-12T18:55:40.676Z,17.43
2017-10-12T18:58:08.849Z,17.22
2017-10-12T19:00:37.019Z,17.27
2017-10-12T19:03:05.131Z,17.19
2017-10-12T19:05:33.117Z,17.17
2017-10-12T19:08:02.285Z,17.26
2017-10-12T19:10:30.394Z,17.34
2017-10-12T19:12:58.704Z,17.39
2017-10-12T19:15:26.836Z,17.26
2017-10-12T19:17:54.858Z,17.18
2017-10-12T19:22:51.051Z,16.89
2017-10-12T19:25:19.797Z,16.70
2017-10-12T19:27:48.072Z,16.55
2017-10-12T19:30:16.153Z,16.77
2017-10-12T19:32:44.477Z,16.71
2017-10-12T19:35:12.195Z,16.66
2017-10-12T19:37:39.952Z,16.74
2017-10-12T19:40:07.788Z,16.52
2017-10-12T19:42:35.637Z,16.51
2017-10-12T19:45:03.510Z,16.27
2017-10-12T19:47:31.451Z,16.23
2017-10-12T19:50:00.246Z,16.08
2017-10-12T19:52:28.938Z,16.11
2017-10-12T19:54:56.826Z,16.04
2017-10-12T19:57:24.635Z,15.79
2017-10-12T19:59:52.466Z,15.96
2017-10-12T20:02:20.146Z,16.04
2017-10-12T20:04:47.959Z,16.04
2017-10-12T20:07:15.673Z,15.96
2017-10-12T20:09:43.428Z,16.02
2017-10-12T20:12:11.087Z,15.97
2017-10-12T20:14:38.706Z,15.99
2017-10-12T20:17:06.519Z,16.01
2017-10-12T20:19:34.232Z,15.88
2017-10-12T20:22:01.797Z,16.13
2017-10-12T20:24:29.423Z,15.77
2017-10-12T20:27:04.343Z,15.68
2017-10-12T20:29:31.961Z,15.48
2017-10-12T20:31:59.591Z,15.62
2017-10-12T20:34:27.189Z,15.72
2017-10-12T20:36:54.770Z,15.65
2017-10-12T20:39:22.478Z,15.60
2017-10-12T20:42:19.657Z,15.50
2017-10-12T20:44:17.674Z,15.82
2017-10-12T20:46:45.338Z,15.65
2017-10-12T20:49:12.869Z,15.53
2017-10-12T20:51:40.473Z,15.16
2017-10-12T20:54:08.052Z,15.08
2017-10-12T20:56:35.833Z,15.34
2017-10-12T20:59:03.393Z,15.32
2017-10-12T21:01:30.998Z,15.22
2017-10-12T21:03:58.531Z,14.85
2017-10-12T21:06:26.064Z,14.91
2017-10-12T21:08:53.679Z,15.11
2017-10-12T21:11:21.268Z,15.15
2017-10-12T21:13:49.026Z,15.20
2017-10-12T21:16:16.624Z,15.11
2017-10-12T21:18:44.206Z,15.04
2017-10-12T21:21:11.787Z,14.86
2017-10-12T21:23:39.387Z,14.85
2017-10-12T21:26:07.146Z,14.77
2017-10-12T21:28:34.683Z,14.73
2017-10-12T21:31:02.241Z,14.99
2017-10-12T21:33:29.861Z,14.74
2017-10-12T21:35:57.386Z,14.65
2017-10-12T21:38:24.994Z,14.74
2017-10-12T21:40:52.766Z,14.55
2017-10-12T21:43:20.347Z,14.75
2017-10-12T21:45:47.939Z,14.63
2017-10-12T21:48:15.458Z,14.71
2017-10-12T21:50:43.080Z,14.71
2017-10-12T21:53:10.649Z,14.54
2017-10-12T21:55:38.178Z,14.43
2017-10-12T21:58:05.714Z,14.48
2017-10-12T22:00:33.292Z,14.60
2017-10-12T22:03:01.051Z,14.51
2017-10-12T22:05:28.571Z,14.58
2017-10-12T22:07:56.243Z,14.78
2017-10-12T22:10:23.763Z,14.80
2017-10-12T22:12:51.370Z,14.71
2017-10-12T22:15:18.973Z,14.26
2017-10-12T22:17:46.751Z,14.33
2017-10-12T22:20:15.034Z,14.36
2017-10-12T22:22:43.452Z,14.52
2017-10-12T22:25:12.086Z,14.09
2017-10-12T22:27:39.687Z,13.79
2017-10-12T22:30:07.375Z,13.93
2017-10-12T22:32:34.947Z,13.94
2017-10-12T22:35:02.470Z,13.88
2017-10-12T22:37:32.019Z,13.91
2017-10-12T22:39:59.620Z,13.91
2017-10-12T22:42:27.173Z,13.98
2017-10-12T22:44:54.726Z,13.87
2017-10-12T22:47:22.595Z,13.97
2017-10-12T22:49:50.130Z,13.97
2017-10-12T22:52:17.744Z,13.84
2017-10-12T22:54:45.283Z,13.90
2017-10-12T22:57:12.837Z,14.31
2017-10-12T22:59:40.415Z,14.36
2017-10-12T23:02:08.288Z,14.19
2017-10-12T23:04:35.808Z,13.96
2017-10-12T23:07:03.339Z,14.05
2017-10-12T23:09:30.930Z,14.12
2017-10-12T23:11:58.505Z,14.07
2017-10-12T23:14:26.069Z,13.99
2017-10-12T23:16:53.698Z,13.93
2017-10-12T23:19:21.242Z,13.86
2017-10-12T23:21:48.781Z,13.73
2017-10-12T23:24:16.419Z,13.69
2017-10-12T23:26:43.945Z,13.81
2017-10-12T23:29:11.785Z,13.80
2017-10-12T23:31:39.379Z,13.61
2017-10-12T23:34:06.975Z,13.52
2017-10-12T23:36:34.568Z,13.44
2017-10-12T23:39:02.158Z,13.56
2017-10-12T23:41:29.801Z,13.53
2017-10-12T23:43:57.578Z,13.47
2017-10-12T23:46:25.145Z,13.51
2017-10-12T23:48:52.673Z,13.28
2017-10-12T23:51:20.253Z,13.28
2017-10-12T23:53:47.878Z,13.20
2017-10-12T23:56:15.431Z,13.12
2017-10-12T23:58:43.248Z,12.88
